Time;durP1;ratioP1;P1;durP2;ratioP2;P2;SDS_P1;SDS_P2;PMS_P1;PMS_P2;Temp;Humidity;BMP_temperature;BMP_pressure;BME280_temperature;BME280_humidity;BME280_pressure;Samples;Min_cycle;Max_cycle;Signal;HPM_P1;HPM_P2
2022/11/28 00:00:33;;;;;;;12.97;8.53;;;;;;;-141.28;100.00;52112.88;5113770;28;20449;-74
2022/11/28 00:03:00;;;;;;;13.23;8.57;;;;;;;-141.28;100.00;52177.69;5113145;28;20493;-78
2022/11/28 00:05:29;;;;;;;14.57;7.23;;;;;;;-141.28;100.00;52216.97;5114305;28;21020;-75
2022/11/28 00:07:57;;;;;;;13.20;7.77;;;;;;;-141.28;100.00;52226.78;5113850;28;20571;-75
2022/11/28 00:10:26;;;;;;;12.90;7.13;;;;;;;-141.28;100.00;52254.28;5113186;28;20441;-75
2022/11/28 00:12:53;;;;;;;133.93;44.17;;;;;;;-141.28;100.00;52332.84;5113309;28;20441;-77
2022/11/28 00:15:20;;;;;;;99.33;39.70;;;;;;;-141.28;100.00;52356.41;5112417;28;20955;-75
2022/11/28 00:17:47;;;;;;;20.57;9.93;;;;;;;-141.28;100.00;52291.59;5113517;28;20509;-75
2022/11/28 00:20:15;;;;;;;14.30;7.23;;;;;;;-141.28;100.00;52336.78;5114149;28;20993;-75
2022/11/28 00:22:44;;;;;;;13.80;6.63;;;;;;;-141.28;100.00;52325.00;5113664;28;20847;-75
2022/11/28 00:25:11;;;;;;;12.37;6.50;;;;;;;-141.28;100.00;52403.53;5111517;28;21025;-74
2022/11/28 00:27:40;;;;;;;13.73;7.73;;;;;;;-141.28;100.00;52415.31;5113095;28;20965;-75
2022/11/28 00:30:08;;;;;;;12.33;7.40;;;;;;;-141.28;100.00;52450.69;5113574;28;20452;-76
2022/11/28 00:32:35;;;;;;;24.87;13.40;;;;;;;-141.28;100.00;52480.16;5113462;28;20452;-76
2022/11/28 00:35:02;;;;;;;21.33;11.50;;;;;;;-141.28;100.00;52476.22;5113095;28;20448;-77
2022/11/28 00:37:29;;;;;;;11.73;6.47;;;;;;;-141.28;100.00;52507.63;5112838;28;20514;-78
2022/11/28 00:39:57;;;;;;;11.60;7.17;;;;;;;-141.28;100.00;52423.19;5113161;28;20863;-78
2022/11/28 00:42:24;;;;;;;13.97;6.53;;;;;;;-141.28;100.00;52517.47;5113379;28;20509;-76
2022/11/28 00:44:53;;;;;;;11.73;6.77;;;;;;;-141.28;100.00;52478.19;5113101;28;20445;-75
2022/11/28 00:47:20;;;;;;;9.80;5.13;;;;;;;-141.28;100.00;52517.47;5112700;28;20884;-76
2022/11/28 00:49:48;;;;;;;10.30;5.70;;;;;;;-141.28;100.00;52544.97;5113050;28;20562;-74
2022/11/28 00:52:14;;;;;;;14.87;6.57;;;;;;;-141.28;100.00;52533.16;5112476;28;20455;-75
2022/11/28 00:54:41;;;;;;;10.40;6.13;;;;;;;-141.28;100.00;52556.75;5113106;28;20449;-74
2022/11/28 00:57:08;;;;;;;11.77;6.50;;;;;;;-141.28;100.00;52558.69;5112521;28;20502;-76
2022/11/28 00:59:35;;;;;;;9.27;5.50;;;;;;;-141.28;100.00;52554.78;5112934;28;20441;-75
2022/11/28 01:02:03;;;;;;;12.53;5.93;;;;;;;-141.28;100.00;52403.53;5099730;28;20963;-75
2022/11/28 01:04:31;;;;;;;10.47;5.23;;;;;;;-141.28;100.00;52548.88;5112408;28;20445;-76
2022/11/28 01:06:58;;;;;;;14.33;5.83;;;;;;;-141.28;100.00;52491.94;5112581;28;20478;-75
2022/11/28 01:09:26;;;;;;;10.40;5.50;;;;;;;-141.28;100.00;52501.75;5112302;28;20537;-75
2022/11/28 01:11:54;;;;;;;10.57;6.03;;;;;;;-141.28;100.00;52348.56;5112237;28;20453;-74
2022/11/28 01:14:23;;;;;;;13.00;5.63;;;;;;;-141.28;100.00;52466.41;5112328;28;20453;-77
2022/11/28 01:16:51;;;;;;;13.43;5.57;;;;;;;-141.28;100.00;52423.19;5112654;28;20523;-75
2022/11/28 01:19:20;;;;;;;13.30;6.80;;;;;;;-141.28;100.00;52413.38;5112112;28;20836;-74
2022/11/28 01:21:47;;;;;;;13.33;6.43;;;;;;;-141.28;100.00;52395.69;5112743;28;20448;-77
2022/11/28 01:24:14;;;;;;;11.03;6.30;;;;;;;-141.28;100.00;52295.53;5111982;28;20830;-74
2022/11/28 01:26:41;;;;;;;11.90;6.97;;;;;;;-141.28;100.00;52289.63;5110903;28;20440;-78
2022/11/28 01:29:09;;;;;;;13.43;6.40;;;;;;;-141.28;100.00;52301.41;5112081;28;20583;-75
2022/11/28 01:31:37;;;;;;;10.80;6.00;;;;;;;-141.28;100.00;52293.56;5111884;28;20436;-75
2022/11/28 01:34:04;;;;;;;10.00;5.83;;;;;;;-141.28;100.00;52091.28;5112257;28;20444;-79
2022/11/28 01:36:32;;;;;;;12.07;6.47;;;;;;;-141.28;100.00;52293.56;5111758;28;20448;-76
2022/11/28 01:38:59;;;;;;;12.33;5.73;;;;;;;-141.28;100.00;52295.53;5112244;28;20900;-76
2022/11/28 01:41:27;;;;;;;12.70;6.40;;;;;;;-141.28;100.00;52246.44;5111800;28;20449;-77
2022/11/28 01:44:00;;;;;;;10.47;6.10;;;;;;;-141.28;100.00;52230.72;5112286;28;20448;-78
2022/11/28 01:46:28;;;;;;;14.33;6.60;;;;;;;-141.28;100.00;52140.38;5112176;28;20452;-75
2022/11/28 01:48:57;;;;;;;10.70;6.00;;;;;;;-141.28;100.00;52203.22;5118910;28;20484;-73
2022/11/28 01:51:25;;;;;;;10.73;6.37;;;;;;;-141.28;100.00;52175.72;5119985;28;20453;-74
2022/11/28 01:53:54;;;;;;;12.60;6.53;;;;;;;-141.28;100.00;52215.00;5114254;28;20453;-75
2022/11/28 01:56:25;;;;;;;14.33;7.17;;;;;;;-141.28;100.00;52209.13;5112211;28;20510;-78
2022/11/28 01:58:58;;;;;;;13.87;7.03;;;;;;;-141.28;100.00;52179.66;5102217;28;21041;-75
2022/11/28 02:01:27;;;;;;;15.93;6.93;;;;;;;-141.28;100.00;52160.03;5108730;28;20893;-77
2022/11/28 02:03:54;;;;;;;16.87;7.53;;;;;;;-141.28;100.00;52093.25;5111734;28;20478;-76
2022/11/28 02:06:24;;;;;;;13.10;6.57;;;;;;;-141.28;100.00;52114.84;5111464;28;20512;-77
2022/11/28 02:08:53;;;;;;;12.23;6.73;;;;;;;-141.28;100.00;52089.31;5111596;28;20480;-76
2022/11/28 02:11:45;;;;;;;12.23;6.60;;;;;;;-141.28;100.00;52071.66;5112188;28;20506;-73
2022/11/28 02:14:22;;;;;;;11.90;6.27;;;;;;;-141.28;100.00;51991.13;5108957;28;20453;-76
2022/11/28 02:17:05;;;;;;;10.90;5.97;;;;;;;-141.28;100.00;51922.41;5112199;28;20443;-75
2022/11/28 02:19:56;;;;;;;11.10;6.30;;;;;;;-141.28;100.00;51869.38;5111900;28;20560;-76
2022/11/28 02:22:28;;;;;;;11.57;6.70;;;;;;;-141.28;100.00;51810.47;5106743;28;20540;-78
2022/11/28 02:25:14;;;;;;;10.13;6.10;;;;;;;-141.28;100.00;51763.34;5111703;28;20498;-78
2022/11/28 02:28:07;;;;;;;11.53;6.40;;;;;;;-141.28;100.00;51700.50;5108701;28;20436;-75
2022/11/28 02:30:47;;;;;;;13.53;7.00;;;;;;;-141.28;100.00;51674.97;5108464;28;20850;-75
2022/11/28 02:33:21;;;;;;;15.57;6.97;;;;;;;-141.28;100.00;51692.66;5111201;28;20440;-74
2022/11/28 02:35:57;;;;;;;14.50;7.40;;;;;;;-141.28;100.00;51696.59;5111329;28;20449;-76
2022/11/28 02:38:43;;;;;;;12.30;6.50;;;;;;;-141.28;100.00;51676.94;5108064;28;20437;-77
2022/11/28 02:41:20;;;;;;;12.57;7.50;;;;;;;-141.28;100.00;51653.38;5111601;28;20440;-75
2022/11/28 02:43:55;;;;;;;11.70;6.43;;;;;;;-141.28;100.00;51618.03;5098715;28;20943;-76
2022/11/28 02:46:29;;;;;;;13.23;6.27;;;;;;;-141.28;100.00;51504.16;5113831;28;20448;-77
2022/11/28 02:49:01;;;;;;;11.13;5.80;;;;;;;-141.28;100.00;51671.06;5115127;28;20563;-78
2022/11/28 02:51:32;;;;;;;14.10;5.43;;;;;;;-141.28;100.00;51724.06;5114889;28;20436;-77
2022/11/28 02:54:02;;;;;;;8.80;5.70;;;;;;;-141.28;100.00;51673.03;5115774;28;20448;-75
2022/11/28 02:56:30;;;;;;;9.57;5.53;;;;;;;-141.28;100.00;51635.72;5111868;28;20440;-75
2022/11/28 02:58:57;;;;;;;11.10;6.40;;;;;;;-141.28;100.00;51694.63;5114779;28;20517;-74
2022/11/28 03:01:27;;;;;;;10.73;5.90;;;;;;;-141.28;100.00;51753.53;5115154;28;20444;-75
2022/11/28 03:04:22;;;;;;;10.93;5.77;;;;;;;-141.28;100.00;51696.59;5115846;28;21006;-74
2022/11/28 03:06:58;;;;;;;12.97;6.57;;;;;;;-141.28;100.00;51673.03;5116010;28;20436;-75
2022/11/28 03:10:03;;;;;;;12.03;6.37;;;;;;;-141.28;100.00;51625.91;5115728;28;20511;-76
2022/11/28 03:12:43;;;;;;;10.70;6.10;;;;;;;-141.28;100.00;51531.66;5106432;28;20967;-77
2022/11/28 03:15:18;;;;;;;9.30;5.83;;;;;;;-141.28;100.00;51535.56;5117947;28;20947;-72
2022/11/28 03:17:55;;;;;;;8.00;5.47;;;;;;;-141.28;100.00;51568.94;5134090;28;20501;-73
2022/11/28 03:20:31;;;;;;;10.37;5.43;;;;;;;-141.28;100.00;51567.00;5136059;28;20632;-74
2022/11/28 03:23:11;;;;;;;9.90;4.90;;;;;;;-141.28;100.00;51567.00;5136308;28;20498;-75
2022/11/28 03:25:47;;;;;;;9.23;5.47;;;;;;;-141.28;100.00;51604.28;5131932;28;20451;-73
2022/11/28 03:28:19;;;;;;;7.70;4.97;;;;;;;-141.28;100.00;51590.56;5117061;28;20456;-74
2022/11/28 03:30:52;;;;;;;8.53;4.67;;;;;;;-141.28;100.00;51584.66;5108120;28;20917;-77
2022/11/28 03:33:21;;;;;;;7.73;4.90;;;;;;;-141.28;100.00;51680.88;5103742;28;20445;-76
2022/11/28 03:35:57;;;;;;;8.33;4.57;;;;;;;-141.28;100.00;51671.06;5116086;28;20449;-76
2022/11/28 03:38:29;;;;;;;7.07;4.40;;;;;;;-141.28;100.00;51103.63;5115705;28;20448;-75
2022/11/28 03:41:01;;;;;;;7.57;4.37;;;;;;;-141.28;100.00;51649.47;5115651;28;20456;-78
2022/11/28 03:43:36;;;;;;;7.50;4.50;;;;;;;-141.28;100.00;51653.38;5115179;28;20559;-74
2022/11/28 03:46:10;;;;;;;7.60;4.40;;;;;;;-141.28;100.00;51649.47;5115597;28;20462;-78
2022/11/28 03:48:41;;;;;;;6.07;3.63;;;;;;;-141.28;100.00;51694.63;5113975;28;21079;-77
2022/11/28 03:51:15;;;;;;;5.70;4.00;;;;;;;-141.28;100.00;51669.09;5114186;28;20461;-78
2022/11/28 03:53:51;;;;;;;4.17;3.20;;;;;;;-141.28;100.00;51586.63;5113857;28;20473;-78
2022/11/28 03:56:23;;;;;;;5.97;3.40;;;;;;;-141.28;100.00;51657.31;5113379;28;20867;-77
2022/11/28 03:58:54;;;;;;;6.47;3.83;;;;;;;-141.28;100.00;51449.19;5113265;28;20451;-74
2022/11/28 04:01:30;;;;;;;41.90;17.00;;;;;;;-141.28;100.00;51602.34;5114273;28;20445;-75
2022/11/28 04:04:09;;;;;;;85.13;33.07;;;;;;;-141.28;100.00;51649.47;5113462;28;20445;-76
2022/11/28 04:06:45;;;;;;;98.20;40.80;;;;;;;-141.28;100.00;51637.69;5113293;28;20448;-76
2022/11/28 04:09:18;;;;;;;96.83;39.60;;;;;;;-141.28;100.00;51731.94;5113863;28;20510;-78
2022/11/28 04:11:51;;;;;;;73.40;35.40;;;;;;;-141.28;100.00;51637.69;5113666;28;20529;-77
2022/11/28 04:14:23;;;;;;;53.80;27.20;;;;;;;-141.28;100.00;51602.34;5102823;28;20499;-76
2022/11/28 04:16:53;;;;;;;49.27;26.13;;;;;;;-141.28;100.00;51669.09;5111656;28;21015;-76
2022/11/28 04:19:28;;;;;;;179.20;94.03;;;;;;;-141.28;100.00;51676.94;5114765;28;20902;-74
2022/11/28 04:22:02;;;;;;;26.67;16.70;;;;;;;-141.28;100.00;51724.06;5116252;28;20525;-73
2022/11/28 04:24:34;;;;;;;47.53;29.63;;;;;;;-141.28;100.00;51678.91;5117818;28;20449;-75
2022/11/28 04:27:04;;;;;;;13.53;8.50;;;;;;;-141.28;100.00;51724.06;5116620;28;20453;-74
2022/11/28 04:29:36;;;;;;;13.87;9.20;;;;;;;-141.28;100.00;51749.59;5111076;28;20508;-74
2022/11/28 04:32:05;;;;;;;4.57;4.00;;;;;;;-141.28;100.00;51425.63;5103538;28;20453;-77
2022/11/28 04:34:34;;;;;;;5.30;4.43;;;;;;;-141.28;100.00;51782.97;5112919;28;20501;-75
2022/11/28 04:37:04;;;;;;;23.77;10.63;;;;;;;-141.28;100.00;51781.03;5113213;28;20445;-76
2022/11/28 04:39:34;;;;;;;49.83;21.80;;;;;;;-141.28;100.00;51731.94;5113126;28;20429;-75
2022/11/28 04:42:10;;;;;;;50.17;22.43;;;;;;;-141.28;100.00;51735.84;5113177;28;20449;-78
2022/11/28 04:44:44;;;;;;;28.50;13.83;;;;;;;-141.28;100.00;51763.34;5113538;28;20500;-76
2022/11/28 04:47:11;;;;;;;24.17;9.83;;;;;;;-141.28;100.00;51741.75;5112921;28;20908;-78
2022/11/28 04:49:39;;;;;;;17.73;7.40;;;;;;;-141.28;100.00;51720.16;5112648;28;21002;-76
2022/11/28 04:52:13;;;;;;;8.40;4.57;;;;;;;-141.28;100.00;51810.47;5112800;28;20445;-77
2022/11/28 04:54:48;;;;;;;6.73;4.23;;;;;;;-141.28;100.00;51796.72;5112716;28;20870;-78
2022/11/28 04:57:20;;;;;;;8.53;5.37;;;;;;;-141.28;100.00;51720.16;5112747;28;20444;-77
2022/11/28 04:59:48;;;;;;;6.97;5.03;;;;;;;-141.28;100.00;51802.63;5112996;28;20860;-75
2022/11/28 05:02:17;;;;;;;3.93;2.87;;;;;;;-141.28;100.00;51692.66;5112962;28;20449;-77
2022/11/28 05:04:46;;;;;;;5.17;3.77;;;;;;;-141.28;100.00;51786.91;5113337;28;20448;-76
2022/11/28 05:07:14;;;;;;;9.40;4.07;;;;;;;-141.28;100.00;51802.63;5102588;28;20453;-74
2022/11/28 05:12:23;;;;;;;4.97;3.03;;;;;;;-141.28;100.00;51724.06;5104291;28;20947;-76
2022/11/28 05:14:52;;;;;;;5.10;3.07;;;;;;;-141.28;100.00;51767.28;5115842;28;20929;-77
2022/11/28 05:17:22;;;;;;;2.73;2.50;;;;;;;-141.28;100.00;51806.53;5095997;28;20445;-77
2022/11/28 05:19:50;;;;;;;7.53;5.17;;;;;;;-141.28;100.00;51818.31;5112217;28;20480;-75
2022/11/28 05:22:19;;;;;;;8.23;4.97;;;;;;;-141.28;100.00;51806.53;5112424;28;20476;-76
2022/11/28 05:24:46;;;;;;;5.80;3.77;;;;;;;-141.28;100.00;51855.63;5112033;28;20441;-76
2022/11/28 05:27:13;;;;;;;5.47;4.50;;;;;;;-141.28;100.00;51845.81;5112354;28;20494;-77
2022/11/28 05:29:42;;;;;;;4.43;3.07;;;;;;;-141.28;100.00;51877.25;5108988;28;20489;-74
2022/11/28 05:32:09;;;;;;;5.50;2.90;;;;;;;-141.28;100.00;51887.06;5112948;28;20453;-73
2022/11/28 05:34:37;;;;;;;4.90;2.80;;;;;;;-141.28;100.00;51885.09;5114463;28;20446;-74
2022/11/28 05:37:05;;;;;;;6.00;3.00;;;;;;;-141.28;100.00;51887.06;5105033;28;20588;-75
2022/11/28 05:39:33;;;;;;;5.33;3.20;;;;;;;-141.28;100.00;51945.97;5111886;28;20472;-73
2022/11/28 05:42:00;;;;;;;7.10;3.43;;;;;;;-141.28;100.00;51924.38;5111740;28;20445;-76
2022/11/28 05:44:27;;;;;;;7.67;3.50;;;;;;;-141.28;100.00;51940.06;5104599;28;20982;-75
2022/11/28 05:46:55;;;;;;;6.00;3.30;;;;;;;-141.28;100.00;51881.16;5105911;28;20456;-77
2022/11/28 05:49:24;;;;;;;7.53;3.17;;;;;;;-141.28;100.00;51908.66;5111912;28;20525;-77
2022/11/28 05:51:51;;;;;;;5.30;3.00;;;;;;;-141.28;100.00;51896.88;5111671;28;20524;-75
2022/11/28 05:54:18;;;;;;;4.40;2.80;;;;;;;-141.28;100.00;51910.63;5098253;28;20453;-78
2022/11/28 05:56:49;;;;;;;8.60;3.30;;;;;;;-141.28;100.00;51940.06;5092197;28;20511;-75
2022/11/28 05:59:16;;;;;;;5.33;3.47;;;;;;;-141.28;100.00;51926.34;5105927;28;20558;-76
2022/11/28 06:01:43;;;;;;;6.30;4.30;;;;;;;-141.28;100.00;51922.41;5110883;27;20970;-76
2022/11/28 06:04:12;;;;;;;8.47;4.53;;;;;;;-141.28;100.00;51908.66;5111453;28;20837;-79
2022/11/28 06:06:41;;;;;;;9.50;5.13;;;;;;;-141.28;100.00;51983.28;5111658;28;20448;-76
2022/11/28 06:09:08;;;;;;;13.83;5.97;;;;;;;-141.28;100.00;51967.56;5111467;28;20870;-77
2022/11/28 06:11:37;;;;;;;8.50;4.87;;;;;;;-141.28;100.00;51989.16;5111333;28;20491;-78
2022/11/28 06:14:05;;;;;;;7.07;4.47;;;;;;;-141.28;100.00;51983.28;5111211;28;20449;-77
2022/11/28 06:16:33;;;;;;;7.60;4.50;;;;;;;-141.28;100.00;51975.44;5111734;28;20440;-75
2022/11/28 06:19:02;;;;;;;8.13;5.00;;;;;;;-141.28;100.00;52010.78;5114483;28;20483;-74
2022/11/28 06:21:30;;;;;;;7.07;4.47;;;;;;;-141.28;100.00;52022.56;5115288;28;20817;-73
2022/11/28 06:23:59;;;;;;;3.83;3.10;;;;;;;-141.28;100.00;52018.63;5116483;28;20524;-75
2022/11/28 06:26:27;;;;;;;7.83;5.27;;;;;;;-141.28;100.00;52044.16;5115842;28;20524;-78
2022/11/28 06:28:55;;;;;;;7.07;4.30;;;;;;;-141.28;100.00;51938.13;5115835;28;20448;-76
2022/11/28 06:31:26;;;;;;;6.70;3.90;;;;;;;-141.28;100.00;51904.72;5109924;28;20476;-76
2022/11/28 06:33:53;;;;;;;16.53;7.83;;;;;;;-141.28;100.00;51519.88;5115646;28;20440;-78
2022/11/28 06:36:21;;;;;;;19.53;10.37;;;;;;;-141.28;100.00;52016.66;5115235;28;20809;-74
2022/11/28 06:38:50;;;;;;;16.53;8.63;;;;;;;-141.28;100.00;52026.47;5115385;28;20493;-77
2022/11/28 06:41:19;;;;;;;9.77;5.60;;;;;;;-141.28;100.00;51991.13;5114915;28;20946;-78
2022/11/28 06:43:46;;;;;;;6.17;3.57;;;;;;;-141.28;100.00;51995.06;5114828;28;20453;-76
2022/11/28 06:46:14;;;;;;;8.57;5.50;;;;;;;-141.28;100.00;51951.84;5108534;28;20445;-77
2022/11/28 06:48:44;;;;;;;12.73;7.97;;;;;;;-141.28;100.00;51959.72;5109270;28;20437;-78
2022/11/28 06:51:12;;;;;;;7.80;5.00;;;;;;;-141.28;100.00;51995.06;5115235;28;20484;-75
2022/11/28 06:53:40;;;;;;;6.40;4.13;;;;;;;-141.28;100.00;52004.88;5114028;28;20919;-76
2022/11/28 06:56:09;;;;;;;35.00;13.53;;;;;;;-141.28;100.00;52016.66;5114983;28;20440;-77
2022/11/28 06:58:36;;;;;;;21.53;8.67;;;;;;;-141.28;100.00;51951.84;5114715;28;20448;-76
2022/11/28 07:01:08;;;;;;;16.90;6.87;;;;;;;-141.28;100.00;51975.44;5114928;28;21035;-75
2022/11/28 07:03:38;;;;;;;10.57;6.00;;;;;;;-141.28;100.00;51771.19;5114871;28;20483;-76
2022/11/28 07:06:08;;;;;;;18.63;8.73;;;;;;;-141.28;100.00;51920.44;5114628;28;20449;-78
2022/11/28 07:08:36;;;;;;;18.27;9.77;;;;;;;-141.28;100.00;51890.97;5115023;28;20760;-73
2022/11/28 07:11:11;;;;;;;17.77;9.10;;;;;;;-141.28;100.00;51837.97;5114777;28;20480;-75
2022/11/28 07:13:38;;;;;;;12.97;8.43;;;;;;;-141.28;100.00;51857.59;5114596;28;20501;-75
2022/11/28 07:16:06;;;;;;;16.00;9.27;;;;;;;-141.28;100.00;51883.13;5115005;28;20456;-74
2022/11/28 07:18:33;;;;;;;15.17;9.87;;;;;;;-141.28;100.00;51278.38;5114305;28;21010;-77
2022/11/28 07:21:01;;;;;;;15.13;9.17;;;;;;;-141.28;100.00;51916.50;5114633;28;20456;-74
2022/11/28 07:23:29;;;;;;;16.47;9.63;;;;;;;-141.28;100.00;51892.94;5113169;28;20525;-75
2022/11/28 07:26:00;;;;;;;17.23;9.70;;;;;;;-141.28;100.00;51739.78;5114373;28;20445;-77
2022/11/28 07:28:28;;;;;;;16.73;9.07;;;;;;;-141.28;100.00;51839.94;5114704;28;20484;-78
2022/11/28 07:31:00;;;;;;;14.40;7.97;;;;;;;-141.28;100.00;51798.69;5110693;28;21106;-77
2022/11/28 07:33:27;;;;;;;11.70;7.20;;;;;;;-141.28;100.00;51782.97;5114679;28;20565;-73
2022/11/28 07:35:54;;;;;;;13.03;7.03;;;;;;;-141.28;100.00;51822.25;5114211;28;20952;-76
2022/11/28 07:38:21;;;;;;;20.00;10.27;;;;;;;-141.28;100.00;51853.69;5114476;28;20822;-75
2022/11/28 07:40:49;;;;;;;19.10;10.93;;;;;;;-141.28;100.00;51851.72;5113682;28;20505;-77
2022/11/28 07:43:17;;;;;;;18.30;10.63;;;;;;;-141.28;100.00;51830.09;5114591;28;20531;-79
2022/11/28 07:45:44;;;;;;;15.40;9.00;;;;;;;-141.28;100.00;51869.38;5114210;28;20900;-79
2022/11/28 07:48:11;;;;;;;25.27;11.40;;;;;;;-141.28;100.00;51865.47;5113080;28;20514;-75
2022/11/28 07:50:39;;;;;;;13.73;7.93;;;;;;;-141.28;100.00;51806.53;5113746;28;20477;-79
2022/11/28 07:53:06;;;;;;;14.50;8.00;;;;;;;-141.28;100.00;51830.09;5113966;28;20449;-77
2022/11/28 07:55:35;;;;;;;13.87;8.23;;;;;;;-141.28;100.00;51867.41;5113879;28;20445;-78
2022/11/28 07:58:04;;;;;;;16.87;11.10;;;;;;;-141.28;100.00;51826.19;5114246;28;20445;-74
2022/11/28 08:00:31;;;;;;;18.27;11.43;;;;;;;-141.28;100.00;51845.81;5099843;28;20441;-74
2022/11/28 08:02:59;;;;;;;15.87;10.87;;;;;;;-141.28;100.00;51800.66;5114285;28;20506;-77
2022/11/28 08:05:25;;;;;;;14.50;9.23;;;;;;;-141.28;100.00;51665.16;5113611;28;20497;-75
2022/11/28 08:07:52;;;;;;;11.23;6.87;;;;;;;-141.28;100.00;51900.81;5113883;28;20459;-77
2022/11/28 08:10:19;;;;;;;13.13;6.97;;;;;;;-141.28;100.00;51908.66;5113576;28;20502;-75
2022/11/28 08:12:47;;;;;;;10.77;6.03;;;;;;;-141.28;100.00;51881.16;5113650;28;20501;-76
2022/11/28 08:15:16;;;;;;;9.00;6.30;;;;;;;-141.28;100.00;51863.50;5109412;28;20514;-75
2022/11/28 08:17:44;;;;;;;9.73;6.57;;;;;;;-141.28;100.00;51869.38;5106260;28;20449;-78
2022/11/28 08:20:11;;;;;;;11.67;7.73;;;;;;;-141.28;100.00;51859.56;5113102;28;20468;-78
2022/11/28 08:22:39;;;;;;;12.77;7.90;;;;;;;-141.28;100.00;51900.81;5113324;28;20529;-77
2022/11/28 08:25:06;;;;;;;12.07;7.53;;;;;;;-141.28;100.00;51885.09;5113260;28;20452;-75
2022/11/28 08:27:34;;;;;;;12.40;7.73;;;;;;;-141.28;100.00;51928.28;5113128;28;20477;-76
2022/11/28 08:30:02;;;;;;;14.83;8.07;;;;;;;-141.28;100.00;51985.25;5110068;28;20445;-76
2022/11/28 08:32:31;;;;;;;16.40;10.07;;;;;;;-141.28;100.00;52048.09;5112914;28;20532;-78
2022/11/28 08:34:58;;;;;;;17.60;9.97;;;;;;;-141.28;100.00;52022.56;5100270;28;20571;-76
2022/11/28 08:37:27;;;;;;;15.53;10.00;;;;;;;-141.28;100.00;52108.97;5113187;28;20473;-76
2022/11/28 08:39:55;;;;;;;15.53;9.50;;;;;;;-141.28;100.00;52148.25;5113090;28;20501;-76
2022/11/28 08:42:22;;;;;;;16.80;9.30;;;;;;;-141.28;100.00;52118.78;5112935;28;20443;-75
2022/11/28 08:44:50;;;;;;;12.83;8.93;;;;;;;-141.28;100.00;52122.72;5112724;28;20441;-77
2022/11/28 08:47:17;;;;;;;16.67;10.87;;;;;;;-141.28;100.00;52093.25;5112716;28;20452;-77
2022/11/28 08:49:46;;;;;;;12.90;7.53;;;;;;;-141.28;100.00;52010.78;5113114;28;20441;-76
2022/11/28 08:52:12;;;;;;;11.83;8.70;;;;;;;-141.28;100.00;51959.72;5113231;28;20857;-77
2022/11/28 08:54:41;;;;;;;15.80;8.90;;;;;;;-141.28;100.00;51892.94;5113949;28;20473;-75
2022/11/28 08:57:09;;;;;;;13.80;9.27;;;;;;;-141.28;100.00;51971.50;5120052;28;20445;-75
2022/11/28 08:59:36;;;;;;;16.37;10.37;;;;;;;-141.28;100.00;51873.31;5114723;28;20456;-74
2022/11/28 09:02:02;;;;;;;14.23;9.33;;;;;;;-141.28;100.00;51885.09;5112842;28;20907;-75
2022/11/28 09:04:30;;;;;;;15.07;9.40;;;;;;;-141.28;100.00;51983.28;5112866;28;20445;-73
2022/11/28 09:06:59;;;;;;;13.40;8.97;;;;;;;-141.28;100.00;51802.63;5112844;28;20453;-75
2022/11/28 09:09:27;;;;;;;15.60;9.57;;;;;;;-141.28;100.00;51877.25;5112920;28;20444;-74
2022/11/28 09:11:54;;;;;;;25.90;11.30;;;;;;;-141.28;100.00;51845.81;5112503;28;21002;-77
2022/11/28 09:14:21;;;;;;;11.60;6.73;;;;;;;-141.28;100.00;51836.00;5112517;28;20505;-75
2022/11/28 09:16:49;;;;;;;11.70;6.70;;;;;;;-141.28;100.00;51841.88;5112121;28;20457;-77
2022/11/28 09:19:15;;;;;;;30.40;16.80;;;;;;;-141.28;100.00;51916.50;5112181;28;21081;-79
2022/11/28 09:21:43;;;;;;;22.43;10.93;;;;;;;-141.28;100.00;51932.22;5112640;28;20453;-79
2022/11/28 09:24:12;;;;;;;5.87;4.60;;;;;;;-141.28;100.00;52018.63;5112162;28;20480;-77
2022/11/28 09:26:39;;;;;;;6.90;4.50;;;;;;;-141.28;100.00;52116.81;5111706;28;20436;-76
2022/11/28 09:29:07;;;;;;;4.20;3.20;;;;;;;-141.28;100.00;52238.56;5112362;28;20441;-75
2022/11/28 09:31:34;;;;;;;5.00;3.57;;;;;;;-141.28;100.00;52112.88;5108416;28;20503;-75
2022/11/28 09:34:02;;;;;;;3.47;2.30;;;;;;;-141.28;100.00;52016.66;5111855;28;20878;-75
2022/11/28 09:36:29;;;;;;;3.03;2.40;;;;;;;-141.28;100.00;51786.91;5112019;28;20441;-75
2022/11/28 09:38:59;;;;;;;3.43;2.50;;;;;;;-141.28;100.00;51947.94;5111726;28;20448;-76
2022/11/28 09:41:54;;;;;;;4.00;2.67;;;;;;;-141.28;100.00;51739.78;5098114;28;20956;-76
2022/11/28 09:44:26;;;;;;;5.37;2.47;;;;;;;-141.28;100.00;51849.75;5112275;28;20501;-78
2022/11/28 09:46:55;;;;;;;5.40;2.77;;;;;;;-141.28;100.00;51555.22;5112267;28;21054;-78
2022/11/28 09:49:38;;;;;;;4.10;2.60;;;;;;;-141.28;100.00;51596.44;5111919;28;20896;-76
2022/11/28 09:52:12;;;;;;;2.67;2.17;;;;;;;-141.28;100.00;51555.22;5111845;28;20492;-77
2022/11/28 09:54:45;;;;;;;2.57;2.30;;;;;;;-141.28;100.00;51384.38;5099809;28;20457;-75
2022/11/28 09:57:18;;;;;;;4.40;2.67;;;;;;;-141.28;100.00;51351.00;5109758;28;20448;-76
2022/11/28 09:59:46;;;;;;;3.40;2.70;;;;;;;-141.28;100.00;51272.47;5101437;28;20440;-77
2022/11/28 10:02:26;;;;;;;4.33;2.80;;;;;;;-141.28;100.00;51178.25;5111473;28;20501;-76
2022/11/28 10:05:06;;;;;;;2.60;2.23;;;;;;;-141.28;100.00;51121.31;5111964;28;20461;-77
2022/11/28 10:07:47;;;;;;;5.23;3.60;;;;;;;-141.28;100.00;51093.81;5098186;28;20457;-75
2022/11/28 10:10:22;;;;;;;3.47;2.63;;;;;;;-141.28;100.00;51048.66;5111679;28;20442;-78
2022/11/28 10:13:02;;;;;;;12.23;6.07;;;;;;;-141.28;100.00;50765.97;5111687;28;20887;-76
2022/11/28 10:15:46;;;;;;;3.80;2.50;;;;;;;-141.28;100.00;50738.50;5111483;28;20449;-76
2022/11/28 10:18:31;;;;;;;2.53;2.30;;;;;;;-141.28;100.00;50691.38;5111132;28;20452;-79
2022/11/28 10:21:02;;;;;;;7.17;5.17;;;;;;;-141.28;100.00;50500.97;5112137;28;20900;-78
2022/11/28 10:23:35;;;;;;;7.77;4.67;;;;;;;-141.28;100.00;50565.75;5113043;28;20475;-77
2022/11/28 10:26:06;;;;;;;7.33;4.37;;;;;;;-141.28;100.00;50471.53;5094306;28;20966;-77
2022/11/28 10:28:37;;;;;;;6.30;2.83;;;;;;;-141.28;100.00;50540.22;5111354;28;20954;-76
2022/11/28 10:31:11;;;;;;;7.23;4.10;;;;;;;-141.28;100.00;50522.56;5108459;28;20481;-76
2022/11/28 10:33:45;;;;;;;7.07;4.40;;;;;;;-141.28;100.00;50502.94;5111444;28;20432;-74
2022/11/28 10:36:18;;;;;;;11.63;6.00;;;;;;;-141.28;100.00;50508.81;5111534;28;20452;-77
2022/11/28 10:38:47;;;;;;;12.53;8.67;;;;;;;-141.28;100.00;50514.72;5111366;28;20446;-75
2022/11/28 10:41:20;;;;;;;13.00;6.60;;;;;;;-141.28;100.00;50499.00;5111111;28;20894;-75
2022/11/28 10:44:15;;;;;;;10.27;6.70;;;;;;;-141.28;100.00;50432.28;5111938;28;20444;-76
2022/11/28 10:46:55;;;;;;;10.67;5.43;;;;;;;-141.28;100.00;50391.06;5112141;28;20447;-76
2022/11/28 10:49:50;;;;;;;10.33;7.33;;;;;;;-141.28;100.00;50391.06;5111915;28;20452;-75
2022/11/28 10:52:24;;;;;;;9.27;6.20;;;;;;;-141.28;100.00;50420.50;5111948;28;21022;-75
2022/11/28 10:55:07;;;;;;;8.97;5.77;;;;;;;-141.28;100.00;50514.72;5096471;28;20440;-75
2022/11/28 10:57:42;;;;;;;6.43;4.53;;;;;;;-141.28;100.00;50506.88;5111362;28;20444;-74
2022/11/28 11:00:13;;;;;;;6.00;3.93;;;;;;;-141.28;100.00;50546.13;5111462;28;20451;-79
2022/11/28 11:02:44;;;;;;;6.57;4.13;;;;;;;-141.28;100.00;50491.16;5098901;28;20453;-78
2022/11/28 11:05:14;;;;;;;5.00;3.50;;;;;;;-141.28;100.00;50522.56;5098298;28;20449;-75
2022/11/28 11:07:48;;;;;;;6.13;3.93;;;;;;;-141.28;100.00;50495.09;5114038;28;20884;-76
2022/11/28 11:10:18;;;;;;;4.67;3.00;;;;;;;-141.28;100.00;50475.47;5115408;28;20474;-76
2022/11/28 11:12:47;;;;;;;4.97;3.13;;;;;;;-141.28;100.00;50471.53;5114486;28;20488;-76
2022/11/28 11:15:23;;;;;;;3.80;3.03;;;;;;;-141.28;100.00;50451.91;5105244;28;20457;-77
2022/11/28 11:17:50;;;;;;;6.00;3.20;;;;;;;-141.28;100.00;50455.84;5112357;28;20444;-76
2022/11/28 11:20:35;;;;;;;7.30;3.40;;;;;;;-141.28;100.00;50436.19;5103858;28;20500;-76
2022/11/28 11:23:12;;;;;;;8.30;5.33;;;;;;;-141.28;100.00;50404.81;5114526;28;20467;-75